createdAt,value
2019-03-04T00:00:01.030Z,100738.27
2019-03-04T00:03:04.559Z,100731.40
2019-03-04T00:06:07.821Z,100734.05
2019-03-04T00:09:11.717Z,100732.45
2019-03-04T00:12:14.939Z,100724.52
2019-03-04T00:15:18.130Z,100714.75
2019-03-04T00:18:21.332Z,100705.36
2019-03-04T00:21:24.514Z,100682.87
2019-03-04T00:24:27.721Z,100681.70
2019-03-04T00:27:30.915Z,100677.68
2019-03-04T00:30:34.101Z,100670.78
2019-03-04T00:33:37.314Z,100671.89
2019-03-04T00:36:40.515Z,100670.99
2019-03-04T00:39:43.696Z,100660.66
2019-03-04T00:42:47.001Z,100648.13
2019-03-04T00:45:50.176Z,100639.90
2019-03-04T00:48:53.381Z,100638.32
2019-03-04T00:51:56.563Z,100637.90
2019-03-04T00:54:59.758Z,100646.14
2019-03-04T00:58:03.093Z,100632.83
2019-03-04T01:01:06.255Z,100633.43
2019-03-04T01:04:09.482Z,100617.69
2019-03-04T01:07:12.779Z,100619.30
2019-03-04T01:10:16.153Z,100628.12
2019-03-04T01:13:19.343Z,100624.09
2019-03-04T01:16:22.423Z,100633.98
2019-03-04T01:19:25.624Z,100635.47
2019-03-04T01:22:28.707Z,100637.57
2019-03-04T01:25:31.927Z,100636.81
2019-03-04T01:28:35.137Z,100633.16
2019-03-04T01:31:38.414Z,100634.53
2019-03-04T01:34:41.613Z,100619.39
2019-03-04T01:37:44.787Z,100620.18
2019-03-04T01:40:47.886Z,100621.30
2019-03-04T01:43:50.975Z,100631.15
2019-03-04T01:46:54.159Z,100637.50
2019-03-04T01:49:57.258Z,100634.25
2019-03-04T01:53:00.455Z,100603.07
2019-03-04T01:56:03.651Z,100608.02
2019-03-04T01:59:06.847Z,100609.45
2019-03-04T02:02:09.939Z,100613.83
2019-03-04T02:05:13.150Z,100613.22
2019-03-04T02:08:16.457Z,100613.65
2019-03-04T02:11:19.639Z,100606.06
2019-03-04T02:14:22.819Z,100595.47
2019-03-04T02:17:25.903Z,100589.08
2019-03-04T02:20:29.015Z,100590.87
2019-03-04T02:23:32.197Z,100585.87
2019-03-04T02:26:35.303Z,100583.42
2019-03-04T02:29:38.496Z,100573.83
2019-03-04T02:32:41.709Z,100570.79
2019-03-04T02:35:44.867Z,100561.87
2019-03-04T02:38:48.237Z,100553.31
2019-03-04T02:41:51.360Z,100524.60
2019-03-04T02:44:54.585Z,100493.37
2019-03-04T02:47:57.756Z,100471.42
2019-03-04T02:51:00.854Z,100418.76
2019-03-04T02:54:04.150Z,100401.81
2019-03-04T02:57:07.365Z,100404.53
2019-03-04T03:00:11.059Z,100426.27
2019-03-04T03:03:14.231Z,100437.73
2019-03-04T03:06:17.424Z,100438.81
2019-03-04T03:09:20.628Z,100431.99
2019-03-04T03:12:23.889Z,100405.92
2019-03-04T03:15:27.044Z,100376.53
2019-03-04T03:18:30.209Z,100354.20
2019-03-04T03:21:33.422Z,100338.44
2019-03-04T03:24:36.603Z,100329.65
2019-03-04T03:27:39.817Z,100355.13
2019-03-04T03:30:42.993Z,100358.71
2019-03-04T03:33:46.199Z,100352.39
2019-03-04T03:36:49.376Z,100317.37
2019-03-04T03:39:52.904Z,100307.41
2019-03-04T03:42:56.068Z,100316.10
2019-03-04T03:45:59.274Z,100301.86
2019-03-04T03:49:02.462Z,100287.25
2019-03-04T03:52:05.679Z,100308.79
2019-03-04T03:55:09.160Z,100314.79
2019-03-04T03:58:12.361Z,100321.11
2019-03-04T04:01:15.549Z,100313.78
2019-03-04T04:04:18.754Z,100319.72
2019-03-04T04:07:21.924Z,100318.44
2019-03-04T04:10:25.657Z,100302.85
2019-03-04T04:13:28.822Z,100305.59
2019-03-04T04:16:31.929Z,100305.28
2019-03-04T04:19:35.115Z,100303.02
2019-03-04T04:22:38.344Z,100303.60
2019-03-04T04:25:41.508Z,100306.06
2019-03-04T04:28:44.619Z,100317.00
2019-03-04T04:31:47.787Z,100313.29
2019-03-04T04:34:50.978Z,100301.18
2019-03-04T04:37:54.242Z,100272.45
2019-03-04T04:40:57.375Z,100261.95
2019-03-04T04:44:00.571Z,100248.59
2019-03-04T04:47:07.756Z,100250.89
2019-03-04T04:50:11.946Z,100247.87
2019-03-04T04:53:15.067Z,100218.89
2019-03-04T04:56:18.267Z,100213.64
2019-03-04T04:59:21.502Z,100228.68
2019-03-04T05:02:24.794Z,100230.85
2019-03-04T05:05:28.048Z,100212.45
2019-03-04T05:08:31.294Z,100186.05
2019-03-04T05:11:34.434Z,100179.34
2019-03-04T05:14:37.540Z,100153.59
2019-03-04T05:17:40.729Z,100141.65
2019-03-04T05:20:44.147Z,100135.98
2019-03-04T05:23:47.422Z,100113.59
2019-03-04T05:26:50.514Z,100099.26
2019-03-04T05:29:53.603Z,100102.92
2019-03-04T05:32:56.711Z,100096.44
2019-03-04T05:36:00.019Z,100109.14
2019-03-04T05:39:03.480Z,100122.30
2019-03-04T05:42:06.607Z,100089.67
2019-03-04T05:45:11.738Z,100066.66
2019-03-04T05:48:15.017Z,100072.94
2019-03-04T05:51:18.136Z,100097.04
2019-03-04T05:54:21.231Z,100120.31
2019-03-04T05:57:24.410Z,100106.25
2019-03-04T06:00:28.695Z,100092.77
2019-03-04T06:03:31.815Z,100091.59
2019-03-04T06:06:40.458Z,100094.75
2019-03-04T06:09:43.630Z,100073.91
2019-03-04T06:12:47.117Z,100065.45
2019-03-04T06:15:50.226Z,100043.95
2019-03-04T06:18:53.317Z,100054.96
2019-03-04T06:21:56.419Z,100040.72
2019-03-04T06:24:59.599Z,100040.55
2019-03-04T06:28:02.802Z,100052.57
2019-03-04T06:31:05.997Z,100055.30
2019-03-04T06:34:09.206Z,100066.28
2019-03-04T06:37:12.398Z,100086.96
2019-03-04T06:40:15.636Z,100094.03
2019-03-04T06:43:18.775Z,100100.83
2019-03-04T06:46:21.971Z,100126.98
2019-03-04T06:49:25.183Z,100129.94
2019-03-04T06:52:28.355Z,100145.70
2019-03-04T06:55:45.295Z,100163.04
2019-03-04T06:58:49.795Z,100157.33
2019-03-04T07:01:56.356Z,100166.13
2019-03-04T07:05:20.508Z,100185.30
2019-03-04T07:09:09.732Z,100160.81
2019-03-04T07:12:12.827Z,100155.74
2019-03-04T07:15:16.038Z,100129.28
2019-03-04T07:18:19.211Z,100120.69
2019-03-04T07:21:22.528Z,100102.77
2019-03-04T07:24:25.728Z,100090.90
2019-03-04T07:27:28.841Z,100097.89
2019-03-04T07:30:32.009Z,100123.88
2019-03-04T07:33:35.095Z,100137.38
2019-03-04T07:36:38.383Z,100151.83
2019-03-04T07:39:41.575Z,100169.72
2019-03-04T07:42:44.852Z,100139.18
2019-03-04T07:45:48.067Z,100128.23
2019-03-04T07:48:51.380Z,100113.06
2019-03-04T07:51:54.662Z,100104.95
2019-03-04T07:54:57.983Z,100108.97
2019-03-04T07:58:01.280Z,100109.53
2019-03-04T08:01:04.563Z,100114.37
2019-03-04T08:04:07.747Z,100097.38
2019-03-04T08:07:23.189Z,100076.93
2019-03-04T08:10:38.938Z,100080.31
2019-03-04T08:13:46.139Z,100080.32
2019-03-04T08:16:49.332Z,100077.38
2019-03-04T08:19:52.488Z,100101.92
2019-03-04T08:22:55.623Z,100083.75
2019-03-04T08:25:58.881Z,100115.49
2019-03-04T08:29:02.123Z,100105.29
2019-03-04T08:32:05.325Z,100095.94
2019-03-04T08:35:08.577Z,100107.61
2019-03-04T08:38:11.768Z,100146.83
2019-03-04T08:41:14.973Z,100113.89
2019-03-04T08:44:18.137Z,100128.31
2019-03-04T08:47:21.269Z,100130.18
2019-03-04T08:50:24.466Z,100158.27
2019-03-04T08:53:27.723Z,100164.99
2019-03-04T08:56:31.032Z,100181.12
2019-03-04T08:59:34.215Z,100181.74
2019-03-04T09:02:37.435Z,100182.76
2019-03-04T09:05:40.741Z,100177.57
2019-03-04T09:08:44.005Z,100193.61
2019-03-04T09:11:47.208Z,100206.01
2019-03-04T09:14:50.450Z,100199.07
2019-03-04T09:17:53.607Z,100160.25
2019-03-04T09:20:56.829Z,100188.24
2019-03-04T09:24:00.000Z,100166.14
2019-03-04T09:27:03.908Z,100194.66
2019-03-04T09:30:07.928Z,100200.43
2019-03-04T09:33:11.112Z,100191.97
2019-03-04T09:36:14.423Z,100196.96
2019-03-04T09:39:17.711Z,100204.62
2019-03-04T09:42:23.226Z,100204.98
2019-03-04T09:45:26.355Z,100215.24
2019-03-04T09:48:29.523Z,100225.41
2019-03-04T09:51:32.725Z,100211.91
2019-03-04T09:54:35.960Z,100202.48
2019-03-04T09:57:39.153Z,100182.62
2019-03-04T10:01:49.471Z,100191.89
2019-03-04T10:05:32.278Z,100192.99
2019-03-04T10:08:43.793Z,100165.62
2019-03-04T10:12:54.036Z,100148.53
2019-03-04T10:16:18.896Z,100152.73
2019-03-04T10:19:32.479Z,100160.18
2019-03-04T10:23:12.807Z,100150.26
2019-03-04T10:27:18.234Z,100175.46
2019-03-04T10:30:35.964Z,100142.78
2019-03-04T10:33:48.583Z,100158.12
2019-03-04T10:37:06.269Z,100187.26
2019-03-04T10:40:20.340Z,100203.17
2019-03-04T10:44:05.981Z,100200.66
2019-03-04T10:47:09.179Z,100217.06
2019-03-04T10:50:12.575Z,100197.60
2019-03-04T10:53:15.780Z,100176.99
2019-03-04T10:56:19.002Z,100194.15
2019-03-04T10:59:22.124Z,100196.59
2019-03-04T11:02:25.317Z,100204.06
2019-03-04T11:05:28.517Z,100203.13
2019-03-04T11:08:31.853Z,100210.44
2019-03-04T11:11:35.020Z,100229.07
2019-03-04T11:14:38.246Z,100217.12
2019-03-04T11:17:41.393Z,100208.32
2019-03-04T11:20:44.579Z,100200.97
2019-03-04T11:23:47.792Z,100184.12
2019-03-04T11:26:51.352Z,100191.83
2019-03-04T11:29:54.504Z,100177.68
2019-03-04T11:32:57.999Z,100176.18
2019-03-04T11:36:01.187Z,100170.16
2019-03-04T11:39:47.927Z,100167.19
2019-03-04T11:42:51.231Z,100156.30
2019-03-04T11:45:54.489Z,100169.51
2019-03-04T11:48:57.712Z,100166.60
2019-03-04T11:52:00.971Z,100166.43
2019-03-04T11:55:04.402Z,100167.96
2019-03-04T11:58:07.680Z,100163.84
2019-03-04T12:01:15.404Z,100152.30
2019-03-04T12:04:18.572Z,100134.08
2019-03-04T12:07:21.864Z,100124.97
2019-03-04T12:10:25.086Z,100132.24
2019-03-04T12:13:28.266Z,100124.07
2019-03-04T12:16:31.369Z,100112.71
2019-03-04T12:19:34.551Z,100108.90
2019-03-04T12:22:37.732Z,100109.12
2019-03-04T12:25:40.955Z,100092.63
2019-03-04T12:28:44.144Z,100103.34
2019-03-04T12:32:22.730Z,100087.88
2019-03-04T12:35:25.878Z,100059.38
2019-03-04T12:38:29.061Z,100066.68
2019-03-04T12:41:32.220Z,100057.68
2019-03-04T12:44:35.559Z,100066.32
2019-03-04T12:47:38.751Z,100046.49
2019-03-04T12:50:42.015Z,100049.00
2019-03-04T12:53:45.238Z,100044.44
2019-03-04T12:56:48.351Z,100028.69
2019-03-04T12:59:51.488Z,100030.80
2019-03-04T13:02:57.880Z,100015.44
2019-03-04T13:05:57.926Z,100016.69
2019-03-04T13:09:01.214Z,99996.80
2019-03-04T13:12:04.479Z,100023.11
2019-03-04T13:15:12.265Z,100029.74
2019-03-04T13:18:15.396Z,100053.15
2019-03-04T13:21:18.593Z,100062.65
2019-03-04T13:24:21.784Z,100053.87
2019-03-04T13:27:25.056Z,100062.29
2019-03-04T13:30:28.263Z,100084.61
2019-03-04T13:33:31.442Z,100083.91
2019-03-04T13:36:34.649Z,100099.44
2019-03-04T13:39:37.947Z,100060.56
2019-03-04T13:42:41.244Z,100071.72
2019-03-04T13:45:44.464Z,100091.05
2019-03-04T13:48:47.633Z,100079.09
2019-03-04T13:51:50.850Z,100062.99
2019-03-04T13:54:54.031Z,100076.93
2019-03-04T13:57:57.334Z,100060.25
2019-03-04T14:01:00.528Z,100069.31
2019-03-04T14:04:03.710Z,100048.77
2019-03-04T14:07:06.916Z,100036.79
2019-03-04T14:10:11.612Z,100062.49
2019-03-04T14:13:14.833Z,100066.35
2019-03-04T14:16:18.671Z,100073.75
2019-03-04T14:19:21.929Z,100077.14
2019-03-04T14:22:25.128Z,100071.17
2019-03-04T14:25:28.328Z,100091.62
2019-03-04T14:28:31.600Z,100097.82
2019-03-04T14:31:34.834Z,100095.91
2019-03-04T14:34:38.015Z,100089.69
2019-03-04T14:37:41.321Z,100091.68
2019-03-04T14:40:44.517Z,100086.87
2019-03-04T14:43:47.687Z,100083.53
2019-03-04T14:46:50.883Z,100089.09
2019-03-04T14:49:54.067Z,100094.37
2019-03-04T14:52:57.291Z,100204.02
2019-03-04T14:56:01.376Z,100252.76
2019-03-04T14:59:10.987Z,100281.45
2019-03-04T15:02:07.044Z,100298.68
2019-03-04T15:05:10.286Z,100280.28
2019-03-04T15:08:13.538Z,100293.63
2019-03-04T15:11:16.834Z,100296.02
2019-03-04T15:14:20.040Z,100278.80
2019-03-04T15:17:29.280Z,100271.53
2019-03-04T15:20:33.460Z,100281.76
2019-03-04T15:23:35.768Z,100288.20
2019-03-04T15:26:43.848Z,100307.06
2019-03-04T15:29:42.261Z,100317.35
2019-03-04T15:32:45.378Z,100336.55
2019-03-04T15:35:48.535Z,100336.25
2019-03-04T15:38:51.767Z,100354.98
2019-03-04T15:41:54.926Z,100356.15
2019-03-04T15:44:58.096Z,100362.36
2019-03-04T15:48:01.216Z,100368.43
2019-03-04T15:51:04.438Z,100369.33
2019-03-04T15:54:08.239Z,100378.88
2019-03-04T15:57:11.519Z,100394.91
2019-03-04T16:00:14.632Z,100403.09
2019-03-04T16:03:17.814Z,100408.85
2019-03-04T16:06:22.152Z,100439.10
2019-03-04T16:09:25.330Z,100452.69
2019-03-04T16:12:28.600Z,100464.77
2019-03-04T16:15:31.747Z,100472.07
2019-03-04T16:18:34.910Z,100481.72
2019-03-04T16:21:38.285Z,100466.98
2019-03-04T16:24:41.431Z,100464.75
2019-03-04T16:27:44.736Z,100468.25
2019-03-04T16:30:49.405Z,100470.72
2019-03-04T16:33:52.542Z,100477.54
2019-03-04T16:36:55.697Z,100477.11
2019-03-04T16:39:58.851Z,100480.83
2019-03-04T16:43:01.997Z,100494.98
2019-03-04T16:46:05.171Z,100510.61
2019-03-04T16:49:08.319Z,100523.70
2019-03-04T16:52:11.593Z,100537.26
2019-03-04T16:55:15.599Z,100545.94
2019-03-04T16:58:18.780Z,100562.34
2019-03-04T17:01:21.877Z,100573.59
2019-03-04T17:04:25.080Z,100574.11
2019-03-04T17:07:28.158Z,100594.23
2019-03-04T17:10:31.368Z,100602.56
2019-03-04T17:13:34.654Z,100611.73
2019-03-04T17:16:37.864Z,100631.11
2019-03-04T17:19:41.059Z,100645.32
2019-03-04T17:22:44.255Z,100652.43
2019-03-04T17:25:47.450Z,100664.65
2019-03-04T17:28:50.619Z,100678.84
2019-03-04T17:31:53.924Z,100684.99
2019-03-04T17:34:57.168Z,100691.57
2019-03-04T17:38:00.279Z,100702.58
2019-03-04T17:41:03.400Z,100699.51
2019-03-04T17:44:06.705Z,100713.27
2019-03-04T17:47:09.925Z,100715.03
2019-03-04T17:50:15.947Z,100721.81
2019-03-04T17:53:19.144Z,100723.75
2019-03-04T17:56:22.367Z,100728.23
2019-03-04T17:59:25.573Z,100732.20
2019-03-04T18:02:28.774Z,100740.11
2019-03-04T18:05:32.111Z,100747.73
2019-03-04T18:08:35.236Z,100743.87
2019-03-04T18:11:38.335Z,100751.20
2019-03-04T18:14:41.505Z,100762.89
2019-03-04T18:17:44.719Z,100768.07
2019-03-04T18:20:47.830Z,100772.57
2019-03-04T18:23:50.982Z,100783.71
2019-03-04T18:26:59.667Z,100789.95
2019-03-04T18:30:18.505Z,100801.47
2019-03-04T18:33:32.724Z,100803.60
2019-03-04T18:36:45.338Z,100812.35
2019-03-04T18:41:05.556Z,100822.58
2019-03-04T18:44:28.299Z,100836.70
2019-03-04T18:47:46.943Z,100848.08
2019-03-04T18:50:50.040Z,100855.54
2019-03-04T18:53:55.004Z,100861.07
2019-03-04T18:56:58.176Z,100866.06
2019-03-04T19:00:01.274Z,100876.70
2019-03-04T19:03:04.380Z,100883.06
2019-03-04T19:06:07.608Z,100886.18
2019-03-04T19:09:10.863Z,100876.86
2019-03-04T19:12:14.056Z,100886.09
2019-03-04T19:15:17.254Z,100887.87
2019-03-04T19:18:20.453Z,100883.12
2019-03-04T19:21:23.752Z,100889.70
2019-03-04T19:24:26.944Z,100884.84
2019-03-04T19:27:30.153Z,100886.11
2019-03-04T19:30:33.352Z,100880.41
2019-03-04T19:33:36.523Z,100881.45
2019-03-04T19:36:39.829Z,100886.00
2019-03-04T19:39:43.026Z,100890.10
2019-03-04T19:42:46.311Z,100894.29
2019-03-04T19:45:49.568Z,100890.88
2019-03-04T19:48:52.697Z,100886.29
2019-03-04T19:51:55.842Z,100887.10
2019-03-04T19:54:58.974Z,100887.25
2019-03-04T19:58:02.698Z,100892.82
2019-03-04T20:01:05.878Z,100886.50
2019-03-04T20:04:09.088Z,100887.29
2019-03-04T20:07:12.409Z,100893.67
2019-03-04T20:10:15.607Z,100885.47
2019-03-04T20:13:18.800Z,100887.89
2019-03-04T20:16:22.144Z,100877.54
2019-03-04T20:19:25.382Z,100882.57
2019-03-04T20:22:28.695Z,100879.25
2019-03-04T20:25:32.183Z,100888.86
2019-03-04T20:28:35.588Z,100891.97
2019-03-04T20:31:38.782Z,100897.57
2019-03-04T20:34:42.394Z,100898.98
2019-03-04T20:37:47.679Z,100901.79
2019-03-04T20:40:50.881Z,100902.74
2019-03-04T20:43:54.209Z,100911.96
2019-03-04T20:46:57.388Z,100911.86
2019-03-04T20:50:00.589Z,100907.87
2019-03-04T20:53:03.875Z,100913.87
2019-03-04T20:56:07.350Z,100916.56
2019-03-04T20:59:10.500Z,100918.16
2019-03-04T21:02:13.847Z,100930.76
2019-03-04T21:05:17.266Z,100931.49
2019-03-04T21:08:20.439Z,100940.45
2019-03-04T21:11:23.611Z,100939.79
2019-03-04T21:14:26.777Z,100949.83
2019-03-04T21:17:29.956Z,100958.09
2019-03-04T21:20:33.171Z,100957.47
2019-03-04T21:23:36.348Z,100970.66
2019-03-04T21:26:44.773Z,100969.03
2019-03-04T21:29:58.470Z,100979.35
2019-03-04T21:33:12.653Z,100986.21
2019-03-04T21:36:26.580Z,100996.42
2019-03-04T21:39:32.387Z,101001.45
2019-03-04T21:42:43.064Z,101002.20
2019-03-04T21:47:02.759Z,101010.13
2019-03-04T21:50:08.116Z,101018.69
2019-03-04T21:53:15.507Z,101021.67
2019-03-04T21:56:31.933Z,101024.00
2019-03-04T21:59:35.275Z,101015.33
2019-03-04T22:02:47.433Z,101020.49
2019-03-04T22:05:50.887Z,101026.20
2019-03-04T22:08:53.723Z,101026.12
2019-03-04T22:11:56.936Z,101031.02
2019-03-04T22:15:00.200Z,101030.61
2019-03-04T22:18:03.328Z,101025.24
2019-03-04T22:21:16.316Z,101023.02
2019-03-04T22:24:09.810Z,101028.08
2019-03-04T22:27:12.854Z,101040.16
2019-03-04T22:30:16.302Z,101024.59
2019-03-04T22:33:19.499Z,101033.97
2019-03-04T22:36:22.678Z,101045.11
2019-03-04T22:39:25.893Z,101036.83
2019-03-04T22:42:29.064Z,101046.17
2019-03-04T22:45:32.275Z,101045.33
2019-03-04T22:48:35.508Z,101053.04
2019-03-04T22:51:38.658Z,101060.09
2019-03-04T22:54:41.835Z,101065.84
2019-03-04T22:57:45.040Z,101070.38
2019-03-04T23:02:01.336Z,101063.00
2019-03-04T23:05:13.519Z,101061.01
2019-03-04T23:08:16.603Z,101058.56
2019-03-04T23:11:22.171Z,101067.89
2019-03-04T23:14:27.652Z,101076.07
2019-03-04T23:17:30.927Z,101074.08
2019-03-04T23:20:34.015Z,101080.72
2019-03-04T23:23:37.119Z,101079.59
2019-03-04T23:26:40.312Z,101079.38
2019-03-04T23:29:43.403Z,101088.33
2019-03-04T23:32:46.492Z,101084.55
2019-03-04T23:35:49.703Z,101090.69
2019-03-04T23:38:53.702Z,101086.86
2019-03-04T23:41:56.898Z,101089.23
2019-03-04T23:45:00.167Z,101084.99
2019-03-04T23:48:03.289Z,101091.34
2019-03-04T23:51:06.479Z,101089.57
2019-03-04T23:54:09.587Z,101094.93
2019-03-04T23:57:12.882Z,101092.57
